Ralston, Canada
Current Conditions -  °F | °C
As of 12:00 AM on Sunday 23 Nov 2014 (Local Time) from CYXH Reporting Station
Overcast Overcast  
Wind Chill: 19°   Ceiling: 8000
Heat Index: 28°   Visibility: 9mi
Dew Point: 25°   Wind: 10mph
Humidity: 86%   Direction: 310°NW
Pressure: 29.65"   Gusts: 17mph
Location:  50.25°N, 111.17°W
Report Text: CYXH 230700Z AUTO 31009G15KT 9SM OVC080 M02/M04 A2965 RMK PRESRR SLP062
Loading
Personal Weather Stations






























Interactive Weather Map New forecast layout! Learn more

10-Day Weather Forecast

Advertisements
Track Severe Weather on mobile